sensor_id;sensor_type;location;lat;lon;timestamp;temperature;humidity
10581;DHT22;5338;51.500;6.802;2022-07-15T00:01:32;18.10;99.90
10581;DHT22;5338;51.500;6.802;2022-07-15T00:03:59;18.20;99.90
10581;DHT22;5338;51.500;6.802;2022-07-15T00:06:26;18.50;99.90
10581;DHT22;5338;51.500;6.802;2022-07-15T00:08:54;18.20;99.90
10581;DHT22;5338;51.500;6.802;2022-07-15T00:11:21;18.10;99.90
10581;DHT22;5338;51.500;6.802;2022-07-15T00:13:48;18.10;99.90
10581;DHT22;5338;51.500;6.802;2022-07-15T00:16:15;18.20;99.90
10581;DHT22;5338;51.500;6.802;2022-07-15T00:18:42;18.00;99.90
10581;DHT22;5338;51.500;6.802;2022-07-15T00:21:09;18.00;99.90
10581;DHT22;5338;51.500;6.802;2022-07-15T00:23:36;17.90;99.90
10581;DHT22;5338;51.500;6.802;2022-07-15T00:26:04;17.90;99.90
10581;DHT22;5338;51.500;6.802;2022-07-15T00:28:31;17.90;99.90
10581;DHT22;5338;51.500;6.802;2022-07-15T00:30:58;17.90;99.90
10581;DHT22;5338;51.500;6.802;2022-07-15T00:33:25;17.90;99.90
10581;DHT22;5338;51.500;6.802;2022-07-15T00:35:52;17.80;99.90
10581;DHT22;5338;51.500;6.802;2022-07-15T00:38:19;17.80;99.90
10581;DHT22;5338;51.500;6.802;2022-07-15T00:40:48;17.80;99.90
10581;DHT22;5338;51.500;6.802;2022-07-15T00:43:17;17.70;99.90
10581;DHT22;5338;51.500;6.802;2022-07-15T00:45:44;17.70;99.90
10581;DHT22;5338;51.500;6.802;2022-07-15T00:48:11;17.70;99.90
10581;DHT22;5338;51.500;6.802;2022-07-15T00:50:38;17.70;99.90
10581;DHT22;5338;51.500;6.802;2022-07-15T00:53:06;17.60;99.90
10581;DHT22;5338;51.500;6.802;2022-07-15T00:55:42;17.60;99.90
10581;DHT22;5338;51.500;6.802;2022-07-15T00:58:13;17.60;99.90
10581;DHT22;5338;51.500;6.802;2022-07-15T01:00:42;17.60;99.90
10581;DHT22;5338;51.500;6.802;2022-07-15T01:03:10;17.60;99.90
10581;DHT22;5338;51.500;6.802;2022-07-15T01:05:38;17.50;99.90
10581;DHT22;5338;51.500;6.802;2022-07-15T01:08:05;17.50;99.90
10581;DHT22;5338;51.500;6.802;2022-07-15T01:10:34;17.50;99.90
10581;DHT22;5338;51.500;6.802;2022-07-15T01:13:02;17.60;99.90
10581;DHT22;5338;51.500;6.802;2022-07-15T01:15:30;17.60;99.90
10581;DHT22;5338;51.500;6.802;2022-07-15T01:18:01;17.60;99.90
10581;DHT22;5338;51.500;6.802;2022-07-15T01:20:28;17.60;99.90
10581;DHT22;5338;51.500;6.802;2022-07-15T01:22:57;17.60;99.90
10581;DHT22;5338;51.500;6.802;2022-07-15T01:25:27;17.50;99.90
10581;DHT22;5338;51.500;6.802;2022-07-15T01:27:55;17.50;99.90
10581;DHT22;5338;51.500;6.802;2022-07-15T01:30:22;17.50;99.90
10581;DHT22;5338;51.500;6.802;2022-07-15T01:32:49;17.50;99.90
10581;DHT22;5338;51.500;6.802;2022-07-15T01:35:17;17.50;99.90
10581;DHT22;5338;51.500;6.802;2022-07-15T01:37:44;17.50;99.90
10581;DHT22;5338;51.500;6.802;2022-07-15T01:40:12;17.40;99.90
10581;DHT22;5338;51.500;6.802;2022-07-15T01:42:39;17.30;99.90
10581;DHT22;5338;51.500;6.802;2022-07-15T01:45:07;17.30;99.90
10581;DHT22;5338;51.500;6.802;2022-07-15T01:47:42;17.30;99.90
10581;DHT22;5338;51.500;6.802;2022-07-15T01:50:09;17.30;99.90
10581;DHT22;5338;51.500;6.802;2022-07-15T01:52:35;17.20;99.90
10581;DHT22;5338;51.500;6.802;2022-07-15T01:55:02;17.10;99.90
10581;DHT22;5338;51.500;6.802;2022-07-15T01:57:31;17.10;99.90
10581;DHT22;5338;51.500;6.802;2022-07-15T01:59:58;17.10;99.90
10581;DHT22;5338;51.500;6.802;2022-07-15T02:02:25;17.10;99.90
10581;DHT22;5338;51.500;6.802;2022-07-15T02:04:52;17.10;99.90
10581;DHT22;5338;51.500;6.802;2022-07-15T02:07:19;17.00;99.90
10581;DHT22;5338;51.500;6.802;2022-07-15T02:09:46;17.00;99.90
10581;DHT22;5338;51.500;6.802;2022-07-15T02:12:13;17.00;99.90
10581;DHT22;5338;51.500;6.802;2022-07-15T02:14:42;16.90;99.90
10581;DHT22;5338;51.500;6.802;2022-07-15T02:17:08;16.90;99.90
10581;DHT22;5338;51.500;6.802;2022-07-15T02:19:35;16.90;99.90
10581;DHT22;5338;51.500;6.802;2022-07-15T02:22:02;16.90;99.90
10581;DHT22;5338;51.500;6.802;2022-07-15T02:24:29;16.90;99.90
10581;DHT22;5338;51.500;6.802;2022-07-15T02:26:56;16.80;99.90
10581;DHT22;5338;51.500;6.802;2022-07-15T02:29:23;16.80;99.90
10581;DHT22;5338;51.500;6.802;2022-07-15T02:31:51;16.80;99.90
10581;DHT22;5338;51.500;6.802;2022-07-15T02:34:18;16.70;99.90
10581;DHT22;5338;51.500;6.802;2022-07-15T02:36:45;16.70;99.90
10581;DHT22;5338;51.500;6.802;2022-07-15T02:39:12;16.70;99.90
10581;DHT22;5338;51.500;6.802;2022-07-15T02:41:38;16.70;99.90
10581;DHT22;5338;51.500;6.802;2022-07-15T02:44:05;16.60;99.90
10581;DHT22;5338;51.500;6.802;2022-07-15T02:46:32;16.50;99.90
10581;DHT22;5338;51.500;6.802;2022-07-15T02:49:01;16.50;99.90
10581;DHT22;5338;51.500;6.802;2022-07-15T02:51:28;16.50;99.90
10581;DHT22;5338;51.500;6.802;2022-07-15T02:53:54;16.50;99.90
10581;DHT22;5338;51.500;6.802;2022-07-15T02:56:21;16.30;99.90
10581;DHT22;5338;51.500;6.802;2022-07-15T02:58:48;16.40;99.90
10581;DHT22;5338;51.500;6.802;2022-07-15T03:01:16;16.40;99.90
10581;DHT22;5338;51.500;6.802;2022-07-15T03:03:43;16.40;99.90
10581;DHT22;5338;51.500;6.802;2022-07-15T03:06:11;16.40;99.90
10581;DHT22;5338;51.500;6.802;2022-07-15T03:08:38;16.40;99.90
10581;DHT22;5338;51.500;6.802;2022-07-15T03:11:05;16.30;99.90
10581;DHT22;5338;51.500;6.802;2022-07-15T03:13:32;16.30;99.90
10581;DHT22;5338;51.500;6.802;2022-07-15T03:15:59;16.30;99.90
10581;DHT22;5338;51.500;6.802;2022-07-15T03:18:26;16.30;99.90
10581;DHT22;5338;51.500;6.802;2022-07-15T03:20:52;16.30;99.90
10581;DHT22;5338;51.500;6.802;2022-07-15T03:23:21;16.20;99.90
10581;DHT22;5338;51.500;6.802;2022-07-15T03:25:48;16.20;99.90
10581;DHT22;5338;51.500;6.802;2022-07-15T03:28:15;16.10;99.90
10581;DHT22;5338;51.500;6.802;2022-07-15T03:30:41;16.20;99.90
10581;DHT22;5338;51.500;6.802;2022-07-15T03:33:08;16.20;99.90
10581;DHT22;5338;51.500;6.802;2022-07-15T03:35:35;16.10;99.90
10581;DHT22;5338;51.500;6.802;2022-07-15T03:38:02;16.10;99.90
10581;DHT22;5338;51.500;6.802;2022-07-15T03:40:31;16.10;99.90
10581;DHT22;5338;51.500;6.802;2022-07-15T03:42:57;16.00;99.90
10581;DHT22;5338;51.500;6.802;2022-07-15T03:45:25;16.00;99.90
10581;DHT22;5338;51.500;6.802;2022-07-15T03:47:52;16.00;99.90
10581;DHT22;5338;51.500;6.802;2022-07-15T03:50:18;15.90;99.90
10581;DHT22;5338;51.500;6.802;2022-07-15T03:52:45;16.00;99.90
10581;DHT22;5338;51.500;6.802;2022-07-15T03:55:12;16.00;99.90
10581;DHT22;5338;51.500;6.802;2022-07-15T03:57:40;16.00;99.90
10581;DHT22;5338;51.500;6.802;2022-07-15T04:00:08;16.00;99.90
10581;DHT22;5338;51.500;6.802;2022-07-15T04:02:35;16.00;99.90
10581;DHT22;5338;51.500;6.802;2022-07-15T04:05:04;16.00;99.90
10581;DHT22;5338;51.500;6.802;2022-07-15T04:07:31;16.00;99.90
10581;DHT22;5338;51.500;6.802;2022-07-15T04:09:57;16.00;99.90
10581;DHT22;5338;51.500;6.802;2022-07-15T04:12:24;16.00;99.90
10581;DHT22;5338;51.500;6.802;2022-07-15T04:14:52;16.00;99.90
10581;DHT22;5338;51.500;6.802;2022-07-15T04:17:19;16.00;99.90
10581;DHT22;5338;51.500;6.802;2022-07-15T04:19:46;16.10;99.90
10581;DHT22;5338;51.500;6.802;2022-07-15T04:22:13;16.10;99.90
10581;DHT22;5338;51.500;6.802;2022-07-15T04:24:40;16.10;99.90
10581;DHT22;5338;51.500;6.802;2022-07-15T04:27:07;16.10;99.90
10581;DHT22;5338;51.500;6.802;2022-07-15T04:29:34;16.10;99.90
10581;DHT22;5338;51.500;6.802;2022-07-15T04:32:03;16.20;99.90
10581;DHT22;5338;51.500;6.802;2022-07-15T04:34:31;16.20;99.90
10581;DHT22;5338;51.500;6.802;2022-07-15T04:36:58;16.20;99.90
10581;DHT22;5338;51.500;6.802;2022-07-15T04:39:24;16.20;99.90
10581;DHT22;5338;51.500;6.802;2022-07-15T04:41:51;16.30;99.90
10581;DHT22;5338;51.500;6.802;2022-07-15T04:44:18;16.30;99.90
10581;DHT22;5338;51.500;6.802;2022-07-15T04:46:45;16.40;99.90
10581;DHT22;5338;51.500;6.802;2022-07-15T04:49:13;16.40;99.90
10581;DHT22;5338;51.500;6.802;2022-07-15T04:51:58;16.40;99.90
10581;DHT22;5338;51.500;6.802;2022-07-15T04:54:24;16.40;99.90
10581;DHT22;5338;51.500;6.802;2022-07-15T04:56:51;16.40;99.90
10581;DHT22;5338;51.500;6.802;2022-07-15T04:59:18;16.40;99.90
10581;DHT22;5338;51.500;6.802;2022-07-15T05:01:45;16.40;99.90
10581;DHT22;5338;51.500;6.802;2022-07-15T05:04:13;16.40;99.90
10581;DHT22;5338;51.500;6.802;2022-07-15T05:06:40;16.40;99.90
10581;DHT22;5338;51.500;6.802;2022-07-15T05:09:07;16.50;99.90
10581;DHT22;5338;51.500;6.802;2022-07-15T05:11:34;16.50;99.90
10581;DHT22;5338;51.500;6.802;2022-07-15T05:14:01;16.50;99.90
10581;DHT22;5338;51.500;6.802;2022-07-15T05:16:27;16.40;99.90
10581;DHT22;5338;51.500;6.802;2022-07-15T05:18:55;16.60;99.90
10581;DHT22;5338;51.500;6.802;2022-07-15T05:21:24;16.70;99.90
10581;DHT22;5338;51.500;6.802;2022-07-15T05:23:50;16.70;99.90
10581;DHT22;5338;51.500;6.802;2022-07-15T05:26:17;16.70;99.90
10581;DHT22;5338;51.500;6.802;2022-07-15T05:28:45;16.80;99.90
10581;DHT22;5338;51.500;6.802;2022-07-15T05:31:12;16.90;99.90
10581;DHT22;5338;51.500;6.802;2022-07-15T05:33:39;16.90;99.90
10581;DHT22;5338;51.500;6.802;2022-07-15T05:36:11;17.00;99.90
10581;DHT22;5338;51.500;6.802;2022-07-15T05:38:39;17.10;99.90
10581;DHT22;5338;51.500;6.802;2022-07-15T05:41:06;17.00;99.90
10581;DHT22;5338;51.500;6.802;2022-07-15T05:43:33;17.00;99.90
10581;DHT22;5338;51.500;6.802;2022-07-15T05:46:00;17.00;99.90
10581;DHT22;5338;51.500;6.802;2022-07-15T05:48:27;17.00;99.90
10581;DHT22;5338;51.500;6.802;2022-07-15T05:50:54;17.10;99.90
10581;DHT22;5338;51.500;6.802;2022-07-15T05:53:21;17.10;99.90
10581;DHT22;5338;51.500;6.802;2022-07-15T05:55:49;17.20;99.90
10581;DHT22;5338;51.500;6.802;2022-07-15T05:58:18;17.30;99.90
10581;DHT22;5338;51.500;6.802;2022-07-15T06:00:45;17.40;99.90
10581;DHT22;5338;51.500;6.802;2022-07-15T06:03:11;17.60;99.90
10581;DHT22;5338;51.500;6.802;2022-07-15T06:05:38;17.80;99.90
10581;DHT22;5338;51.500;6.802;2022-07-15T06:08:05;18.00;99.90
10581;DHT22;5338;51.500;6.802;2022-07-15T06:10:32;18.00;99.90
10581;DHT22;5338;51.500;6.802;2022-07-15T06:13:01;17.90;99.90
10581;DHT22;5338;51.500;6.802;2022-07-15T06:15:28;18.00;99.90
10581;DHT22;5338;51.500;6.802;2022-07-15T06:17:56;18.00;99.90
10581;DHT22;5338;51.500;6.802;2022-07-15T06:20:23;18.00;99.90
10581;DHT22;5338;51.500;6.802;2022-07-15T06:22:50;17.90;99.90
10581;DHT22;5338;51.500;6.802;2022-07-15T06:25:18;18.00;99.90
10581;DHT22;5338;51.500;6.802;2022-07-15T06:27:44;18.10;99.90
10581;DHT22;5338;51.500;6.802;2022-07-15T06:30:14;18.20;99.90
10581;DHT22;5338;51.500;6.802;2022-07-15T06:32:41;18.20;99.90
10581;DHT22;5338;51.500;6.802;2022-07-15T06:35:08;18.30;99.90
10581;DHT22;5338;51.500;6.802;2022-07-15T06:37:35;18.30;99.90
10581;DHT22;5338;51.500;6.802;2022-07-15T06:40:02;18.40;99.90
10581;DHT22;5338;51.500;6.802;2022-07-15T06:42:29;18.50;99.90
10581;DHT22;5338;51.500;6.802;2022-07-15T06:44:56;18.60;99.90
10581;DHT22;5338;51.500;6.802;2022-07-15T06:47:24;18.70;99.90
10581;DHT22;5338;51.500;6.802;2022-07-15T06:49:52;18.80;99.90
10581;DHT22;5338;51.500;6.802;2022-07-15T06:52:19;18.80;99.90
10581;DHT22;5338;51.500;6.802;2022-07-15T06:54:46;18.70;99.90
10581;DHT22;5338;51.500;6.802;2022-07-15T06:57:13;19.00;99.90
10581;DHT22;5338;51.500;6.802;2022-07-15T06:59:42;19.30;99.90
10581;DHT22;5338;51.500;6.802;2022-07-15T07:02:09;19.40;99.90
10581;DHT22;5338;51.500;6.802;2022-07-15T07:04:37;19.70;99.90
10581;DHT22;5338;51.500;6.802;2022-07-15T07:07:04;19.90;99.90
10581;DHT22;5338;51.500;6.802;2022-07-15T07:09:31;20.20;99.90
10581;DHT22;5338;51.500;6.802;2022-07-15T07:11:58;20.70;99.90
10581;DHT22;5338;51.500;6.802;2022-07-15T07:14:25;21.10;99.50
10581;DHT22;5338;51.500;6.802;2022-07-15T07:16:52;21.40;97.00
10581;DHT22;5338;51.500;6.802;2022-07-15T07:19:19;21.60;95.70
10581;DHT22;5338;51.500;6.802;2022-07-15T07:21:48;21.70;92.90
10581;DHT22;5338;51.500;6.802;2022-07-15T07:24:15;21.60;92.30
10581;DHT22;5338;51.500;6.802;2022-07-15T07:26:42;21.70;91.60
10581;DHT22;5338;51.500;6.802;2022-07-15T07:29:08;21.80;91.10
10581;DHT22;5338;51.500;6.802;2022-07-15T07:31:37;21.60;88.20
10581;DHT22;5338;51.500;6.802;2022-07-15T07:34:04;21.60;90.20
10581;DHT22;5338;51.500;6.802;2022-07-15T07:36:31;21.80;90.00
10581;DHT22;5338;51.500;6.802;2022-07-15T07:38:59;22.10;87.40
10581;DHT22;5338;51.500;6.802;2022-07-15T07:41:27;22.20;83.70
10581;DHT22;5338;51.500;6.802;2022-07-15T07:43:53;22.30;85.70
10581;DHT22;5338;51.500;6.802;2022-07-15T07:46:20;21.90;85.50
10581;DHT22;5338;51.500;6.802;2022-07-15T07:48:47;21.80;78.60
10581;DHT22;5338;51.500;6.802;2022-07-15T07:51:15;21.40;80.10
10581;DHT22;5338;51.500;6.802;2022-07-15T07:53:43;20.80;80.80
10581;DHT22;5338;51.500;6.802;2022-07-15T07:56:13;20.20;91.70
10581;DHT22;5338;51.500;6.802;2022-07-15T07:58:40;20.30;87.10
10581;DHT22;5338;51.500;6.802;2022-07-15T08:01:07;20.30;89.70
10581;DHT22;5338;51.500;6.802;2022-07-15T08:03:34;20.60;90.40
10581;DHT22;5338;51.500;6.802;2022-07-15T08:06:01;21.10;90.30
10581;DHT22;5338;51.500;6.802;2022-07-15T08:08:28;21.60;87.40
10581;DHT22;5338;51.500;6.802;2022-07-15T08:10:56;22.00;82.20
10581;DHT22;5338;51.500;6.802;2022-07-15T08:13:26;22.30;79.10
10581;DHT22;5338;51.500;6.802;2022-07-15T08:15:54;22.70;76.20
10581;DHT22;5338;51.500;6.802;2022-07-15T08:18:21;22.80;74.80
10581;DHT22;5338;51.500;6.802;2022-07-15T08:20:48;22.60;72.10
10581;DHT22;5338;51.500;6.802;2022-07-15T08:23:15;22.80;73.40
10581;DHT22;5338;51.500;6.802;2022-07-15T08:25:47;22.90;71.60
10581;DHT22;5338;51.500;6.802;2022-07-15T08:28:14;23.30;71.40
10581;DHT22;5338;51.500;6.802;2022-07-15T08:30:42;23.70;70.70
10581;DHT22;5338;51.500;6.802;2022-07-15T08:33:09;23.80;65.20
10581;DHT22;5338;51.500;6.802;2022-07-15T08:35:36;24.00;63.30
10581;DHT22;5338;51.500;6.802;2022-07-15T08:38:03;23.90;62.10
10581;DHT22;5338;51.500;6.802;2022-07-15T08:40:33;23.70;62.20
10581;DHT22;5338;51.500;6.802;2022-07-15T08:43:00;23.10;62.90
10581;DHT22;5338;51.500;6.802;2022-07-15T08:45:27;22.70;65.20
10581;DHT22;5338;51.500;6.802;2022-07-15T08:47:58;22.60;67.10
10581;DHT22;5338;51.500;6.802;2022-07-15T08:50:28;22.90;67.50
10581;DHT22;5338;51.500;6.802;2022-07-15T08:52:55;23.30;66.10
10581;DHT22;5338;51.500;6.802;2022-07-15T08:55:22;23.00;64.10
10581;DHT22;5338;51.500;6.802;2022-07-15T08:57:50;22.80;65.40
10581;DHT22;5338;51.500;6.802;2022-07-15T09:00:18;22.40;65.80
10581;DHT22;5338;51.500;6.802;2022-07-15T09:02:45;22.20;67.30
10581;DHT22;5338;51.500;6.802;2022-07-15T09:05:23;22.00;68.70
10581;DHT22;5338;51.500;6.802;2022-07-15T09:07:54;22.00;69.20
10581;DHT22;5338;51.500;6.802;2022-07-15T09:10:22;22.30;69.70
10581;DHT22;5338;51.500;6.802;2022-07-15T09:12:49;22.50;66.60
10581;DHT22;5338;51.500;6.802;2022-07-15T09:15:33;22.50;66.20
10581;DHT22;5338;51.500;6.802;2022-07-15T09:18:11;22.30;65.50
10581;DHT22;5338;51.500;6.802;2022-07-15T09:20:42;22.10;66.90
10581;DHT22;5338;51.500;6.802;2022-07-15T09:23:54;21.90;67.50
10581;DHT22;5338;51.500;6.802;2022-07-15T09:26:22;21.90;68.80
10581;DHT22;5338;51.500;6.802;2022-07-15T09:28:49;22.50;69.40
10581;DHT22;5338;51.500;6.802;2022-07-15T09:31:27;22.70;66.70
10581;DHT22;5338;51.500;6.802;2022-07-15T09:34:11;22.80;66.10
10581;DHT22;5338;51.500;6.802;2022-07-15T09:36:45;22.40;64.20
10581;DHT22;5338;51.500;6.802;2022-07-15T09:39:17;22.30;65.30
10581;DHT22;5338;51.500;6.802;2022-07-15T09:41:44;22.00;66.30
10581;DHT22;5338;51.500;6.802;2022-07-15T09:44:13;21.80;66.80
10581;DHT22;5338;51.500;6.802;2022-07-15T09:46:43;21.90;65.50
10581;DHT22;5338;51.500;6.802;2022-07-15T09:49:11;22.00;66.60
10581;DHT22;5338;51.500;6.802;2022-07-15T09:51:45;22.40;67.40
10581;DHT22;5338;51.500;6.802;2022-07-15T09:54:13;22.80;64.70
10581;DHT22;5338;51.500;6.802;2022-07-15T09:56:40;22.70;63.00
10581;DHT22;5338;51.500;6.802;2022-07-15T09:59:08;23.20;62.40
10581;DHT22;5338;51.500;6.802;2022-07-15T10:01:35;23.80;61.40
10581;DHT22;5338;51.500;6.802;2022-07-15T10:04:03;24.40;60.00
10581;DHT22;5338;51.500;6.802;2022-07-15T10:06:32;24.70;58.90
10581;DHT22;5338;51.500;6.802;2022-07-15T10:09:03;24.70;57.30
10581;DHT22;5338;51.500;6.802;2022-07-15T10:11:33;24.00;56.40
10581;DHT22;5338;51.500;6.802;2022-07-15T10:14:41;23.80;56.60
10581;DHT22;5338;51.500;6.802;2022-07-15T10:17:36;23.80;57.20
10581;DHT22;5338;51.500;6.802;2022-07-15T10:20:37;23.80;56.50
10581;DHT22;5338;51.500;6.802;2022-07-15T10:23:22;23.50;57.30
10581;DHT22;5338;51.500;6.802;2022-07-15T10:26:04;23.10;57.20
10581;DHT22;5338;51.500;6.802;2022-07-15T10:28:49;23.00;58.60
10581;DHT22;5338;51.500;6.802;2022-07-15T10:31:19;22.80;59.20
10581;DHT22;5338;51.500;6.802;2022-07-15T10:34:14;23.10;59.60
10581;DHT22;5338;51.500;6.802;2022-07-15T10:36:54;23.60;58.50
10581;DHT22;5338;51.500;6.802;2022-07-15T10:39:24;24.20;56.90
10581;DHT22;5338;51.500;6.802;2022-07-15T10:41:54;24.50;54.60
10581;DHT22;5338;51.500;6.802;2022-07-15T10:44:23;24.80;53.90
10581;DHT22;5338;51.500;6.802;2022-07-15T10:47:17;24.50;51.50
10581;DHT22;5338;51.500;6.802;2022-07-15T10:49:47;24.10;52.50
10581;DHT22;5338;51.500;6.802;2022-07-15T10:52:16;24.50;53.40
10581;DHT22;5338;51.500;6.802;2022-07-15T10:54:48;24.90;52.60
10581;DHT22;5338;51.500;6.802;2022-07-15T10:57:18;24.80;51.10
10581;DHT22;5338;51.500;6.802;2022-07-15T10:59:53;24.80;51.20
10581;DHT22;5338;51.500;6.802;2022-07-15T11:02:22;25.10;50.00
10581;DHT22;5338;51.500;6.802;2022-07-15T11:04:50;25.20;51.20
10581;DHT22;5338;51.500;6.802;2022-07-15T11:07:28;25.50;50.70
10581;DHT22;5338;51.500;6.802;2022-07-15T11:10:13;25.80;50.50
10581;DHT22;5338;51.500;6.802;2022-07-15T11:12:58;26.10;49.20
10581;DHT22;5338;51.500;6.802;2022-07-15T11:15:27;26.30;48.00
10581;DHT22;5338;51.500;6.802;2022-07-15T11:17:56;26.40;46.40
10581;DHT22;5338;51.500;6.802;2022-07-15T11:20:27;26.40;45.80
10581;DHT22;5338;51.500;6.802;2022-07-15T11:22:56;26.60;45.90
10581;DHT22;5338;51.500;6.802;2022-07-15T11:25:25;26.70;45.40
10581;DHT22;5338;51.500;6.802;2022-07-15T11:28:03;26.70;44.80
10581;DHT22;5338;51.500;6.802;2022-07-15T11:30:33;26.70;44.60
10581;DHT22;5338;51.500;6.802;2022-07-15T11:33:03;26.80;45.30
10581;DHT22;5338;51.500;6.802;2022-07-15T11:35:31;26.10;44.10
10581;DHT22;5338;51.500;6.802;2022-07-15T11:38:10;25.50;44.80
10581;DHT22;5338;51.500;6.802;2022-07-15T11:40:42;24.90;46.20
10581;DHT22;5338;51.500;6.802;2022-07-15T11:43:28;24.40;47.40
10581;DHT22;5338;51.500;6.802;2022-07-15T11:46:13;24.40;54.30
10581;DHT22;5338;51.500;6.802;2022-07-15T11:48:41;24.20;48.70
10581;DHT22;5338;51.500;6.802;2022-07-15T11:51:09;24.00;48.80
10581;DHT22;5338;51.500;6.802;2022-07-15T11:53:38;23.90;49.30
10581;DHT22;5338;51.500;6.802;2022-07-15T11:56:07;23.60;49.60
10581;DHT22;5338;51.500;6.802;2022-07-15T11:58:37;23.50;50.30
10581;DHT22;5338;51.500;6.802;2022-07-15T12:01:06;23.30;50.50
10581;DHT22;5338;51.500;6.802;2022-07-15T12:03:36;23.20;49.70
10581;DHT22;5338;51.500;6.802;2022-07-15T12:06:10;23.20;50.40
10581;DHT22;5338;51.500;6.802;2022-07-15T12:08:40;23.70;51.20
10581;DHT22;5338;51.500;6.802;2022-07-15T12:11:16;23.70;49.80
10581;DHT22;5338;51.500;6.802;2022-07-15T12:13:48;24.20;51.00
10581;DHT22;5338;51.500;6.802;2022-07-15T12:16:19;25.50;53.70
10581;DHT22;5338;51.500;6.802;2022-07-15T12:18:47;25.40;48.20
10581;DHT22;5338;51.500;6.802;2022-07-15T12:21:15;25.70;48.10
10581;DHT22;5338;51.500;6.802;2022-07-15T12:23:57;25.80;46.70
10581;DHT22;5338;51.500;6.802;2022-07-15T12:26:25;25.00;51.20
10581;DHT22;5338;51.500;6.802;2022-07-15T12:28:54;24.80;46.00
10581;DHT22;5338;51.500;6.802;2022-07-15T12:31:25;24.30;46.90
10581;DHT22;5338;51.500;6.802;2022-07-15T12:33:52;23.90;47.40
10581;DHT22;5338;51.500;6.802;2022-07-15T12:36:21;22.80;52.90
10581;DHT22;5338;51.500;6.802;2022-07-15T12:39:12;23.50;48.10
10581;DHT22;5338;51.500;6.802;2022-07-15T12:41:43;23.40;48.60
10581;DHT22;5338;51.500;6.802;2022-07-15T12:44:12;23.20;48.60
10581;DHT22;5338;51.500;6.802;2022-07-15T12:46:56;23.20;48.90
10581;DHT22;5338;51.500;6.802;2022-07-15T12:49:40;23.30;49.50
10581;DHT22;5338;51.500;6.802;2022-07-15T12:52:22;23.20;49.10
10581;DHT22;5338;51.500;6.802;2022-07-15T12:54:51;23.10;48.80
10581;DHT22;5338;51.500;6.802;2022-07-15T12:57:20;23.00;49.00
10581;DHT22;5338;51.500;6.802;2022-07-15T12:59:53;23.20;49.30
10581;DHT22;5338;51.500;6.802;2022-07-15T13:02:20;23.00;49.10
10581;DHT22;5338;51.500;6.802;2022-07-15T13:04:47;23.50;49.70
10581;DHT22;5338;51.500;6.802;2022-07-15T13:07:15;23.90;47.80
10581;DHT22;5338;51.500;6.802;2022-07-15T13:09:42;24.00;47.90
10581;DHT22;5338;51.500;6.802;2022-07-15T13:12:09;23.60;47.10
10581;DHT22;5338;51.500;6.802;2022-07-15T13:14:36;23.50;48.60
10581;DHT22;5338;51.500;6.802;2022-07-15T13:17:05;23.40;48.50
10581;DHT22;5338;51.500;6.802;2022-07-15T13:19:33;23.30;47.90
10581;DHT22;5338;51.500;6.802;2022-07-15T13:22:00;23.30;48.20
10581;DHT22;5338;51.500;6.802;2022-07-15T13:24:28;23.20;48.00
10581;DHT22;5338;51.500;6.802;2022-07-15T13:26:55;23.20;48.20
10581;DHT22;5338;51.500;6.802;2022-07-15T13:29:22;23.20;49.00
10581;DHT22;5338;51.500;6.802;2022-07-15T13:31:49;23.20;48.70
10581;DHT22;5338;51.500;6.802;2022-07-15T13:34:17;23.10;48.30
10581;DHT22;5338;51.500;6.802;2022-07-15T13:36:44;23.20;48.70
10581;DHT22;5338;51.500;6.802;2022-07-15T13:39:11;23.10;48.40
10581;DHT22;5338;51.500;6.802;2022-07-15T13:41:38;23.00;48.60
10581;DHT22;5338;51.500;6.802;2022-07-15T13:44:05;23.00;48.60
10581;DHT22;5338;51.500;6.802;2022-07-15T13:46:32;22.90;48.70
10581;DHT22;5338;51.500;6.802;2022-07-15T13:48:59;22.70;49.10
10581;DHT22;5338;51.500;6.802;2022-07-15T13:51:27;22.70;49.70
10581;DHT22;5338;51.500;6.802;2022-07-15T13:53:56;22.70;50.10
10581;DHT22;5338;51.500;6.802;2022-07-15T13:56:23;22.90;56.60
10581;DHT22;5338;51.500;6.802;2022-07-15T13:58:50;22.70;50.80
10581;DHT22;5338;51.500;6.802;2022-07-15T14:01:17;22.70;50.00
10581;DHT22;5338;51.500;6.802;2022-07-15T14:03:44;22.50;49.50
10581;DHT22;5338;51.500;6.802;2022-07-15T14:06:11;22.80;56.40
10581;DHT22;5338;51.500;6.802;2022-07-15T14:08:39;22.60;50.90
10581;DHT22;5338;51.500;6.802;2022-07-15T14:11:06;22.70;50.90
10581;DHT22;5338;51.500;6.802;2022-07-15T14:13:33;22.70;50.40
10581;DHT22;5338;51.500;6.802;2022-07-15T14:16:00;22.70;50.90
10581;DHT22;5338;51.500;6.802;2022-07-15T14:18:27;22.70;50.80
10581;DHT22;5338;51.500;6.802;2022-07-15T14:21:12;22.70;51.00
10581;DHT22;5338;51.500;6.802;2022-07-15T14:23:40;22.70;50.80
10581;DHT22;5338;51.500;6.802;2022-07-15T14:26:07;22.70;50.80
10581;DHT22;5338;51.500;6.802;2022-07-15T14:28:34;22.70;50.80
10581;DHT22;5338;51.500;6.802;2022-07-15T14:31:02;22.70;51.00
10581;DHT22;5338;51.500;6.802;2022-07-15T14:33:29;22.80;50.70
10581;DHT22;5338;51.500;6.802;2022-07-15T14:35:56;22.90;50.70
10581;DHT22;5338;51.500;6.802;2022-07-15T14:38:22;23.10;51.50
10581;DHT22;5338;51.500;6.802;2022-07-15T14:40:51;23.20;50.90
10581;DHT22;5338;51.500;6.802;2022-07-15T14:43:18;23.20;50.90
10581;DHT22;5338;51.500;6.802;2022-07-15T14:45:45;23.20;51.20
10581;DHT22;5338;51.500;6.802;2022-07-15T14:48:12;23.20;51.20
10581;DHT22;5338;51.500;6.802;2022-07-15T14:50:38;23.20;51.40
10581;DHT22;5338;51.500;6.802;2022-07-15T14:53:05;23.20;51.50
10581;DHT22;5338;51.500;6.802;2022-07-15T14:55:32;23.20;51.70
10581;DHT22;5338;51.500;6.802;2022-07-15T14:58:01;23.20;50.90
10581;DHT22;5338;51.500;6.802;2022-07-15T15:00:29;23.30;51.00
10581;DHT22;5338;51.500;6.802;2022-07-15T15:02:56;23.40;50.90
10581;DHT22;5338;51.500;6.802;2022-07-15T15:05:23;23.60;51.20
10581;DHT22;5338;51.500;6.802;2022-07-15T15:07:50;23.60;50.40
10581;DHT22;5338;51.500;6.802;2022-07-15T15:10:16;23.60;51.40
10581;DHT22;5338;51.500;6.802;2022-07-15T15:12:44;23.50;51.40
10581;DHT22;5338;51.500;6.802;2022-07-15T15:15:12;23.50;51.70
10581;DHT22;5338;51.500;6.802;2022-07-15T15:17:39;23.50;51.80
10581;DHT22;5338;51.500;6.802;2022-07-15T15:20:07;23.60;51.50
10581;DHT22;5338;51.500;6.802;2022-07-15T15:22:34;23.80;51.40
10581;DHT22;5338;51.500;6.802;2022-07-15T15:25:01;24.10;50.90
10581;DHT22;5338;51.500;6.802;2022-07-15T15:27:28;24.30;50.60
10581;DHT22;5338;51.500;6.802;2022-07-15T15:29:55;24.20;49.80
10581;DHT22;5338;51.500;6.802;2022-07-15T15:32:23;24.30;49.60
10581;DHT22;5338;51.500;6.802;2022-07-15T15:34:50;24.00;49.40
10581;DHT22;5338;51.500;6.802;2022-07-15T15:37:17;23.90;50.40
10581;DHT22;5338;51.500;6.802;2022-07-15T15:39:44;23.80;50.70
10581;DHT22;5338;51.500;6.802;2022-07-15T15:42:11;23.80;50.70
10581;DHT22;5338;51.500;6.802;2022-07-15T15:44:38;23.70;50.00
10581;DHT22;5338;51.500;6.802;2022-07-15T15:47:05;23.70;50.40
10581;DHT22;5338;51.500;6.802;2022-07-15T15:49:34;23.80;50.80
10581;DHT22;5338;51.500;6.802;2022-07-15T15:52:02;24.00;50.80
10581;DHT22;5338;51.500;6.802;2022-07-15T15:54:29;24.10;49.10
10581;DHT22;5338;51.500;6.802;2022-07-15T15:56:56;24.10;49.30